createdAt,value
2022-09-01T00:00:53.147Z,20.84
2022-09-01T00:03:27.805Z,20.81
2022-09-01T00:06:01.622Z,20.90
2022-09-01T00:08:32.136Z,20.84
2022-09-01T00:11:03.295Z,20.74
2022-09-01T00:13:34.929Z,20.63
2022-09-01T00:16:07.198Z,20.57
2022-09-01T00:18:42.561Z,20.62
2022-09-01T00:21:13.609Z,20.63
2022-09-01T00:23:43.524Z,20.57
2022-09-01T00:26:13.961Z,20.52
2022-09-01T00:28:43.867Z,20.49
2022-09-01T00:31:15.144Z,20.45
2022-09-01T00:33:48.150Z,20.50
2022-09-01T00:36:18.551Z,20.53
2022-09-01T00:38:49.251Z,20.47
2022-09-01T00:41:21.847Z,20.39
2022-09-01T00:43:53.362Z,20.46
2022-09-01T00:46:29.104Z,20.53
2022-09-01T00:49:05.548Z,20.48
2022-09-01T00:51:38.040Z,20.49
2022-09-01T00:54:10.560Z,20.46
2022-09-01T00:56:46.416Z,20.48
2022-09-01T00:59:17.645Z,20.45
2022-09-01T01:01:47.932Z,20.49
2022-09-01T01:04:25.509Z,20.42
2022-09-01T01:07:01.801Z,20.45
2022-09-01T01:09:35.229Z,20.41
2022-09-01T01:12:08.609Z,20.43
2022-09-01T01:14:40.097Z,20.43
2022-09-01T01:17:10.939Z,20.36
2022-09-01T01:20:00.441Z,20.36
2022-09-01T01:22:55.097Z,20.28
2022-09-01T01:25:27.932Z,20.30
2022-09-01T01:28:07.825Z,20.29
2022-09-01T01:30:39.705Z,20.31
2022-09-01T01:33:10.157Z,20.22
2022-09-01T01:35:42.462Z,20.19
2022-09-01T01:38:12.784Z,20.18
2022-09-01T01:40:45.408Z,20.18
2022-09-01T01:43:20.064Z,20.08
2022-09-01T01:45:52.148Z,20.04
2022-09-01T01:48:24.583Z,19.96
2022-09-01T01:50:55.812Z,20.02
2022-09-01T01:53:26.284Z,20.00
2022-09-01T01:56:00.995Z,20.09
2022-09-01T01:58:32.650Z,20.09
2022-09-01T02:01:03.686Z,20.04
2022-09-01T02:03:38.917Z,20.06
2022-09-01T02:06:12.292Z,20.06
2022-09-01T02:08:43.817Z,20.02
2022-09-01T02:11:17.346Z,20.16
2022-09-01T02:13:49.431Z,20.14
2022-09-01T02:16:21.111Z,20.03
2022-09-01T02:18:53.996Z,20.00
2022-09-01T02:21:27.210Z,20.00
2022-09-01T02:24:02.325Z,19.99
2022-09-01T02:26:39.668Z,20.02
2022-09-01T02:29:18.130Z,20.03
2022-09-01T02:31:50.487Z,20.07
2022-09-01T02:34:21.819Z,20.02
2022-09-01T02:36:55.711Z,19.93
2022-09-01T02:39:29.224Z,19.86
2022-09-01T02:42:02.180Z,19.74
2022-09-01T02:44:34.718Z,19.68
2022-09-01T02:47:10.074Z,19.62
2022-09-01T02:49:40.803Z,19.65
2022-09-01T02:52:10.972Z,19.60
2022-09-01T02:54:41.846Z,19.62
2022-09-01T02:57:14.813Z,19.60
2022-09-01T02:59:47.560Z,19.57
2022-09-01T03:02:17.652Z,19.57
2022-09-01T03:04:51.388Z,19.64
2022-09-01T03:07:36.671Z,19.58
2022-09-01T03:10:09.732Z,19.65
2022-09-01T03:12:42.435Z,19.66
2022-09-01T03:15:13.345Z,19.61
2022-09-01T03:17:45.759Z,19.55
2022-09-01T03:20:16.555Z,19.47
2022-09-01T03:22:47.481Z,19.38
2022-09-01T03:25:18.777Z,19.36
2022-09-01T03:27:51.743Z,19.36
2022-09-01T03:30:23.892Z,19.29
2022-09-01T03:32:54.520Z,19.22
2022-09-01T03:35:25.317Z,19.07
2022-09-01T03:37:55.766Z,19.09
2022-09-01T03:40:27.764Z,19.06
2022-09-01T03:43:00.793Z,19.03
2022-09-01T03:45:30.954Z,19.02
2022-09-01T03:48:01.638Z,18.97
2022-09-01T03:50:31.920Z,18.96
2022-09-01T03:53:02.464Z,19.01
2022-09-01T03:55:38.216Z,18.96
2022-09-01T03:58:14.577Z,18.93
2022-09-01T04:00:48.946Z,18.94
2022-09-01T04:03:29.062Z,18.88
2022-09-01T04:06:02.242Z,18.84
2022-09-01T04:08:33.676Z,18.90
2022-09-01T04:11:07.208Z,18.83
2022-09-01T04:13:42.375Z,18.75
2022-09-01T04:16:43.078Z,18.68
2022-09-01T04:19:20.130Z,18.72
2022-09-01T04:21:53.740Z,18.66
2022-09-01T04:24:28.346Z,18.66
2022-09-01T04:27:01.807Z,18.60
2022-09-01T04:29:34.854Z,18.55
2022-09-01T04:32:08.085Z,18.47
2022-09-01T04:34:41.774Z,18.45
2022-09-01T04:37:14.757Z,18.41
2022-09-01T04:39:53.666Z,18.37
2022-09-01T04:42:27.397Z,18.44
2022-09-01T04:45:05.079Z,18.41
2022-09-01T04:47:42.208Z,18.41
2022-09-01T04:50:17.562Z,18.37
2022-09-01T04:52:48.687Z,18.36
2022-09-01T04:55:20.161Z,18.39
2022-09-01T04:57:52.387Z,18.33
2022-09-01T05:00:26.416Z,18.36
2022-09-01T05:03:04.726Z,18.35
2022-09-01T05:05:43.070Z,18.28
2022-09-01T05:08:23.107Z,18.26
2022-09-01T05:10:56.815Z,18.19
2022-09-01T05:13:27.738Z,18.13
2022-09-01T05:16:13.055Z,18.11
2022-09-01T05:18:45.153Z,18.14
2022-09-01T05:21:16.533Z,18.05
2022-09-01T05:23:49.387Z,18.00
2022-09-01T05:26:22.185Z,17.99
2022-09-01T05:28:58.599Z,18.01
2022-09-01T05:31:34.925Z,18.02
2022-09-01T05:34:05.264Z,17.99
2022-09-01T05:36:36.340Z,17.92
2022-09-01T05:39:07.521Z,17.89
2022-09-01T05:41:39.860Z,17.92
2022-09-01T05:44:11.317Z,17.84
2022-09-01T05:46:45.414Z,17.79
2022-09-01T05:49:16.947Z,17.81
2022-09-01T05:51:51.736Z,17.81
2022-09-01T05:54:25.573Z,17.77
2022-09-01T05:57:08.389Z,17.82
2022-09-01T05:59:53.622Z,17.84
2022-09-01T06:02:28.543Z,17.81
2022-09-01T06:04:59.945Z,17.74
2022-09-01T06:07:30.330Z,17.83
2022-09-01T06:10:00.250Z,17.75
2022-09-01T06:12:30.336Z,17.79
2022-09-01T06:15:01.316Z,17.86
2022-09-01T06:17:35.909Z,17.84
2022-09-01T06:20:10.840Z,17.82
2022-09-01T06:22:41.676Z,17.91
2022-09-01T06:25:13.090Z,17.89
2022-09-01T06:27:44.903Z,17.89
2022-09-01T06:30:23.810Z,17.88
2022-09-01T06:33:02.492Z,17.90
2022-09-01T06:35:33.033Z,17.89
2022-09-01T06:38:03.248Z,17.93
2022-09-01T06:40:33.932Z,17.96
2022-09-01T06:43:08.063Z,17.96
2022-09-01T06:45:44.202Z,18.02
2022-09-01T06:48:17.842Z,17.95
2022-09-01T06:53:39.036Z,18.06
2022-09-01T06:56:13.205Z,18.06
2022-09-01T06:58:45.056Z,18.09
2022-09-01T07:01:16.289Z,18.16
2022-09-01T07:03:51.181Z,18.15
2022-09-01T07:09:22.136Z,18.21
2022-09-01T07:12:24.233Z,18.30
2022-09-01T07:17:49.960Z,18.38
2022-09-01T07:20:25.854Z,18.40
2022-09-01T07:23:06.246Z,18.42
2022-09-01T07:28:39.944Z,18.66
2022-09-01T07:38:03.347Z,18.77
2022-09-01T07:42:56.940Z,18.77
2022-09-01T07:45:31.369Z,18.90
2022-09-01T07:48:03.714Z,18.86
2022-09-01T07:51:35.080Z,18.91
2022-09-01T07:53:29.797Z,18.96
2022-09-01T07:56:03.557Z,19.04
2022-09-01T07:58:36.039Z,19.11
2022-09-01T08:01:11.767Z,19.22
2022-09-01T08:03:43.841Z,19.33
2022-09-01T08:06:21.118Z,19.37
2022-09-01T08:08:57.980Z,19.39
2022-09-01T08:14:23.459Z,19.60
2022-09-01T08:17:16.810Z,19.65
2022-09-01T08:19:49.563Z,19.77
2022-09-01T08:22:25.557Z,19.83
2022-09-01T08:24:59.162Z,19.84
2022-09-01T08:27:29.560Z,20.00
2022-09-01T08:30:00.445Z,20.10
2022-09-01T08:32:33.006Z,20.17
2022-09-01T08:35:06.543Z,20.27
2022-09-01T08:37:40.019Z,20.36
2022-09-01T08:40:18.697Z,20.45
2022-09-01T08:43:02.484Z,20.59
2022-09-01T08:45:56.464Z,20.63
2022-09-01T08:49:24.356Z,20.77
2022-09-01T08:52:09.814Z,20.94
2022-09-01T08:55:05.888Z,21.09
2022-09-01T08:57:59.730Z,21.14
2022-09-01T09:00:58.006Z,21.29
2022-09-01T09:03:55.232Z,21.48
2022-09-01T09:10:31.736Z,21.70
2022-09-01T09:13:21.958Z,21.93
2022-09-01T09:16:27.079Z,22.07
2022-09-01T09:19:10.673Z,22.29
2022-09-01T09:22:21.464Z,22.44
2022-09-01T09:25:23.822Z,22.59
2022-09-01T09:28:03.884Z,22.71
2022-09-01T09:31:28.644Z,22.86
2022-09-01T09:34:02.325Z,23.16
2022-09-01T09:36:52.356Z,23.25
2022-09-01T09:39:52.270Z,23.46
2022-09-01T09:42:47.337Z,23.55
2022-09-01T09:45:31.900Z,23.80
2022-09-01T09:48:11.222Z,23.95
2022-09-01T09:50:53.001Z,24.12
2022-09-01T09:53:34.642Z,24.22
2022-09-01T09:56:24.676Z,24.28
2022-09-01T09:59:29.225Z,24.51
2022-09-01T10:02:33.194Z,24.56
2022-09-01T10:05:28.107Z,24.46
2022-09-01T10:08:06.322Z,24.49
2022-09-01T10:10:43.709Z,24.61
2022-09-01T10:13:17.822Z,24.96
2022-09-01T10:16:05.501Z,25.17
2022-09-01T10:18:43.238Z,25.35
2022-09-01T10:21:22.064Z,25.54
2022-09-01T10:24:20.563Z,25.83
2022-09-01T10:26:58.778Z,26.02
2022-09-01T10:30:19.153Z,26.04
2022-09-01T10:33:12.126Z,26.52
2022-09-01T10:36:17.715Z,26.71
2022-09-01T10:39:15.230Z,27.03
2022-09-01T10:42:08.342Z,27.27
2022-09-01T10:44:44.459Z,27.43
2022-09-01T10:47:30.235Z,27.61
2022-09-01T10:50:07.926Z,27.85
2022-09-01T10:52:57.229Z,28.02
2022-09-01T10:55:36.619Z,28.11
2022-09-01T11:02:24.831Z,28.86
2022-09-01T11:05:17.804Z,28.85
2022-09-01T11:08:00.852Z,28.77
2022-09-01T11:10:49.721Z,28.88
2022-09-01T11:13:47.730Z,29.26
2022-09-01T11:16:47.214Z,29.38
2022-09-01T11:19:27.586Z,29.54
2022-09-01T11:22:13.080Z,29.38
2022-09-01T11:25:12.968Z,29.29
2022-09-01T11:28:01.924Z,29.30
2022-09-01T11:30:55.602Z,29.30
2022-09-01T11:33:37.524Z,29.26
2022-09-01T11:36:10.384Z,29.12
2022-09-01T11:38:50.595Z,29.00
2022-09-01T11:41:33.084Z,28.91
2022-09-01T11:44:15.792Z,28.74
2022-09-01T11:46:45.749Z,28.63
2022-09-01T11:49:31.679Z,28.42
2022-09-01T11:52:03.397Z,28.40
2022-09-01T11:54:41.799Z,28.25
2022-09-01T11:57:24.677Z,28.15
2022-09-01T11:59:58.894Z,28.15
2022-09-01T12:02:31.989Z,28.11
2022-09-01T12:05:04.189Z,28.03
2022-09-01T12:07:43.100Z,28.17
2022-09-01T12:10:21.401Z,28.06
2022-09-01T12:12:51.529Z,28.06
2022-09-01T12:15:28.963Z,28.14
2022-09-01T12:18:14.757Z,28.11
2022-09-01T12:20:45.189Z,28.18
2022-09-01T12:23:28.450Z,28.24
2022-09-01T12:26:00.883Z,28.15
2022-09-01T12:28:33.914Z,28.09
2022-09-01T12:31:09.768Z,28.01
2022-09-01T12:33:40.230Z,27.95
2022-09-01T12:36:18.553Z,27.85
2022-09-01T12:38:48.459Z,27.68
2022-09-01T12:41:35.176Z,27.64
2022-09-01T12:44:30.499Z,27.76
2022-09-01T12:47:06.974Z,27.86
2022-09-01T12:49:50.356Z,27.98
2022-09-01T12:52:26.569Z,28.06
2022-09-01T12:55:10.242Z,28.03
2022-09-01T12:57:48.556Z,28.02
2022-09-01T13:00:24.451Z,28.06
2022-09-01T13:03:10.880Z,27.97
2022-09-01T13:05:43.098Z,28.03
2022-09-01T13:08:15.097Z,28.08
2022-09-01T13:10:48.384Z,28.00
2022-09-01T13:13:20.327Z,28.07
2022-09-01T13:15:53.146Z,28.12
2022-09-01T13:18:27.713Z,28.14
2022-09-01T13:20:59.801Z,28.12
2022-09-01T13:23:30.184Z,28.08
2022-09-01T13:26:00.946Z,28.12
2022-09-01T13:28:32.032Z,28.27
2022-09-01T13:34:21.843Z,28.79
2022-09-01T13:36:52.107Z,28.87
2022-09-01T13:39:23.612Z,29.13
2022-09-01T13:41:53.462Z,29.41
2022-09-01T13:44:23.618Z,29.80
2022-09-01T13:47:27.757Z,30.11
2022-09-01T13:50:06.312Z,30.10
2022-09-01T13:52:36.381Z,29.92
2022-09-01T13:55:07.361Z,29.76
2022-09-01T13:57:37.390Z,29.62
2022-09-01T14:00:11.191Z,29.42
2022-09-01T14:02:43.024Z,29.45
2022-09-01T14:05:16.200Z,29.45
2022-09-01T14:07:47.118Z,29.44
2022-09-01T14:10:18.995Z,29.39
2022-09-01T14:12:50.170Z,29.43
2022-09-01T14:15:27.181Z,29.39
2022-09-01T14:18:00.461Z,29.32
2022-09-01T14:20:36.944Z,29.29
2022-09-01T14:23:08.427Z,29.27
2022-09-01T14:25:38.937Z,29.37
2022-09-01T14:28:09.068Z,29.56
2022-09-01T14:30:39.648Z,29.77
2022-09-01T14:33:09.850Z,29.82
2022-09-01T14:35:46.015Z,29.86
2022-09-01T14:38:17.242Z,29.87
2022-09-01T14:40:52.071Z,29.86
2022-09-01T14:43:22.697Z,29.73
2022-09-01T14:45:53.713Z,29.95
2022-09-01T14:48:23.869Z,30.27
2022-09-01T14:50:56.940Z,31.26
2022-09-01T14:53:28.670Z,32.20
2022-09-01T14:56:00.085Z,33.08
2022-09-01T14:58:31.608Z,33.53
2022-09-01T15:01:17.544Z,33.68
2022-09-01T15:03:52.312Z,33.71
2022-09-01T15:06:26.109Z,33.87
2022-09-01T15:08:55.985Z,34.19
2022-09-01T15:11:26.090Z,34.60
2022-09-01T15:13:56.311Z,34.84
2022-09-01T15:16:28.902Z,34.63
2022-09-01T15:18:59.079Z,33.99
2022-09-01T15:21:34.049Z,33.34
2022-09-01T15:24:05.161Z,32.94
2022-09-01T15:26:35.889Z,33.28
2022-09-01T15:29:07.037Z,34.04
2022-09-01T15:31:37.094Z,34.78
2022-09-01T15:34:08.673Z,35.10
2022-09-01T15:36:44.847Z,35.03
2022-09-01T15:39:15.093Z,34.62
2022-09-01T15:41:47.079Z,33.98
2022-09-01T15:44:17.336Z,33.33
2022-09-01T15:46:47.516Z,32.76
2022-09-01T15:49:18.124Z,32.42
2022-09-01T15:51:50.896Z,31.84
2022-09-01T15:54:25.058Z,31.78
2022-09-01T15:56:57.243Z,31.73
2022-09-01T15:59:27.212Z,31.75
2022-09-01T16:01:59.568Z,31.74
2022-09-01T16:04:29.445Z,31.75
2022-09-01T16:07:01.980Z,31.46
2022-09-01T16:09:32.628Z,31.49
2022-09-01T16:12:02.638Z,31.40
2022-09-01T16:14:32.561Z,31.46
2022-09-01T16:17:06.187Z,31.45
2022-09-01T16:19:43.115Z,31.29
2022-09-01T16:22:23.713Z,31.08
2022-09-01T16:25:00.303Z,31.05
2022-09-01T16:27:37.236Z,31.10
2022-09-01T16:30:10.857Z,31.09
2022-09-01T16:32:48.069Z,31.08
2022-09-01T16:35:20.949Z,31.12
2022-09-01T16:38:07.951Z,31.16
2022-09-01T16:48:10.957Z,31.06
2022-09-01T16:50:52.870Z,31.00
2022-09-01T16:53:40.726Z,30.87
2022-09-01T16:56:14.859Z,30.82
2022-09-01T17:14:54.744Z,30.00
2022-09-01T17:23:58.972Z,29.47
2022-09-01T17:35:48.382Z,29.11
2022-09-01T17:39:45.160Z,29.07
2022-09-01T17:47:09.593Z,28.83
2022-09-01T17:49:53.860Z,28.66
2022-09-01T17:52:40.175Z,28.57
2022-09-01T17:55:17.575Z,28.50
2022-09-01T17:57:57.246Z,28.38
2022-09-01T18:00:34.875Z,28.34
2022-09-01T18:03:36.890Z,28.19
2022-09-01T18:06:11.934Z,28.04
2022-09-01T18:08:45.866Z,27.84
2022-09-01T18:11:21.432Z,27.75
2022-09-01T18:13:59.028Z,27.62
2022-09-01T18:16:34.478Z,27.48
2022-09-01T18:19:08.432Z,27.46
2022-09-01T18:21:40.505Z,27.34
2022-09-01T18:24:17.556Z,27.31
2022-09-01T18:26:50.438Z,27.11
2022-09-01T18:29:21.463Z,26.92
2022-09-01T18:32:27.669Z,26.74
2022-09-01T18:35:11.647Z,26.62
2022-09-01T18:37:52.662Z,26.50
2022-09-01T18:40:33.075Z,26.32
2022-09-01T18:43:16.949Z,26.23
2022-09-01T18:46:04.241Z,26.06
2022-09-01T18:48:57.666Z,26.01
2022-09-01T18:51:50.737Z,25.94
2022-09-01T18:54:26.307Z,25.83
2022-09-01T18:57:01.736Z,25.68
2022-09-01T18:59:56.474Z,25.63
2022-09-01T19:02:51.754Z,25.58
2022-09-01T19:05:41.651Z,25.51
2022-09-01T19:08:25.946Z,25.44
2022-09-01T19:11:01.828Z,25.27
2022-09-01T19:13:48.517Z,25.23
2022-09-01T19:16:43.312Z,25.20
2022-09-01T19:19:27.112Z,25.02
2022-09-01T19:22:00.417Z,24.96
2022-09-01T19:24:36.564Z,24.88
2022-09-01T19:27:15.950Z,24.74
2022-09-01T19:30:04.804Z,24.60
2022-09-01T19:32:59.630Z,24.50
2022-09-01T19:35:37.950Z,24.43
2022-09-01T19:38:20.199Z,24.33
2022-09-01T19:40:55.597Z,24.36
2022-09-01T19:43:28.198Z,24.24
2022-09-01T19:46:18.360Z,24.09
2022-09-01T19:49:13.573Z,24.03
2022-09-01T19:52:32.499Z,23.88
2022-09-01T19:55:14.620Z,23.79
2022-09-01T19:57:54.288Z,23.64
2022-09-01T20:00:31.976Z,23.49
2022-09-01T20:03:13.159Z,23.27
2022-09-01T20:05:46.865Z,23.14
2022-09-01T20:08:24.439Z,22.96
2022-09-01T20:11:07.288Z,22.95
2022-09-01T20:13:47.838Z,22.82
2022-09-01T20:16:27.304Z,22.80
2022-09-01T20:19:03.796Z,22.72
2022-09-01T20:21:40.190Z,22.63
2022-09-01T20:24:22.891Z,22.48
2022-09-01T20:27:43.735Z,22.35
2022-09-01T20:30:26.613Z,22.35
2022-09-01T20:37:17.027Z,22.41
2022-09-01T20:37:30.687Z,22.35
2022-09-01T20:40:01.747Z,22.28
2022-09-01T20:42:45.598Z,22.19
2022-09-01T20:45:22.582Z,22.15
2022-09-01T20:47:58.026Z,22.22
2022-09-01T20:50:43.187Z,22.12
2022-09-01T20:53:38.315Z,21.97
2022-09-01T20:56:24.883Z,21.96
2022-09-01T20:59:06.691Z,21.92
2022-09-01T21:01:43.855Z,21.89
2022-09-01T21:04:38.712Z,21.86
2022-09-01T21:07:16.477Z,21.83
2022-09-01T21:09:55.907Z,21.75
2022-09-01T21:12:41.350Z,21.72
2022-09-01T21:15:27.210Z,21.62
2022-09-01T21:18:10.679Z,21.60
2022-09-01T21:20:53.826Z,21.60
2022-09-01T21:23:26.269Z,21.48
2022-09-01T21:26:02.262Z,21.46
2022-09-01T21:28:33.544Z,21.42
2022-09-01T21:31:10.527Z,21.37
2022-09-01T21:33:41.149Z,21.32
2022-09-01T21:36:13.859Z,21.31
2022-09-01T21:38:48.081Z,21.26
2022-09-01T21:41:19.828Z,21.11
2022-09-01T21:43:53.532Z,21.10
2022-09-01T21:46:36.728Z,21.03
2022-09-01T21:49:14.436Z,20.97
2022-09-01T21:51:45.466Z,20.94
2022-09-01T21:54:18.641Z,20.82
2022-09-01T21:56:55.588Z,20.84
2022-09-01T21:59:29.507Z,20.74
2022-09-01T22:02:02.872Z,20.78
2022-09-01T22:04:33.547Z,20.78
2022-09-01T22:07:04.244Z,20.59
2022-09-01T22:09:35.548Z,20.70
2022-09-01T22:12:06.553Z,20.66
2022-09-01T22:14:37.291Z,20.71
2022-09-01T22:17:10.789Z,20.80
2022-09-01T22:19:41.515Z,20.84
2022-09-01T22:22:16.670Z,20.83
2022-09-01T22:24:47.276Z,20.66
2022-09-01T22:27:17.218Z,20.68
2022-09-01T22:29:47.087Z,20.58
2022-09-01T22:32:23.125Z,20.55
2022-09-01T22:34:53.073Z,20.45
2022-09-01T22:37:23.709Z,20.37
2022-09-01T22:39:54.173Z,20.29
2022-09-01T22:42:25.010Z,20.16
2022-09-01T22:44:55.153Z,20.22
2022-09-01T22:47:30.767Z,20.03
2022-09-01T22:50:05.863Z,19.90
2022-09-01T22:52:40.260Z,19.84
2022-09-01T22:55:13.763Z,19.90
2022-09-01T22:57:44.008Z,19.89
2022-09-01T23:00:25.585Z,19.88
2022-09-01T23:03:02.486Z,19.77
2022-09-01T23:05:36.077Z,19.66
2022-09-01T23:08:10.340Z,19.54
2022-09-01T23:10:41.869Z,19.38
2022-09-01T23:13:13.843Z,19.36
2022-09-01T23:15:45.212Z,19.42
2022-09-01T23:18:19.454Z,19.25
2022-09-01T23:20:49.921Z,19.19
2022-09-01T23:23:21.486Z,19.19
2022-09-01T23:25:53.644Z,19.16
2022-09-01T23:28:26.142Z,19.12
2022-09-01T23:30:59.083Z,19.03
2022-09-01T23:33:33.087Z,19.00
2022-09-01T23:36:04.285Z,19.04
2022-09-01T23:38:35.687Z,19.03
2022-09-01T23:41:10.903Z,19.00
2022-09-01T23:43:42.938Z,19.02
2022-09-01T23:46:24.001Z,19.07
2022-09-01T23:48:58.494Z,19.07
2022-09-01T23:51:30.768Z,18.98
2022-09-01T23:54:02.333Z,18.92
2022-09-01T23:56:35.037Z,18.87
2022-09-01T23:59:06.444Z,18.83
